createdAt,value
2024-04-04T00:00:42.068Z,0
2024-04-04T00:01:42.052Z,0
2024-04-04T00:02:42.076Z,0
2024-04-04T00:03:42.060Z,0
2024-04-04T00:04:42.058Z,0
2024-04-04T00:05:42.050Z,0
2024-04-04T00:06:42.064Z,0
2024-04-04T00:07:42.056Z,0
2024-04-04T00:08:42.056Z,0
2024-04-04T00:09:42.066Z,0
2024-04-04T00:10:42.059Z,0
2024-04-04T00:11:42.068Z,0
2024-04-04T00:12:42.056Z,0
2024-04-04T00:13:42.060Z,0
2024-04-04T00:14:42.059Z,0
2024-04-04T00:15:42.062Z,0
2024-04-04T00:16:42.066Z,0
2024-04-04T00:17:42.063Z,0
2024-04-04T00:18:42.089Z,0
2024-04-04T00:19:42.060Z,0
2024-04-04T00:20:42.063Z,0
2024-04-04T00:21:42.063Z,0
2024-04-04T00:22:42.066Z,0
2024-04-04T00:23:42.062Z,0
2024-04-04T00:24:42.069Z,0
2024-04-04T00:25:42.063Z,0
2024-04-04T00:26:42.066Z,0
2024-04-04T00:27:42.083Z,0
2024-04-04T00:28:42.064Z,0
2024-04-04T00:29:42.070Z,0
2024-04-04T00:30:42.071Z,0
2024-04-04T00:31:42.073Z,0
2024-04-04T00:32:42.066Z,0
2024-04-04T00:33:42.067Z,0
2024-04-04T00:34:42.090Z,0
2024-04-04T00:35:42.073Z,0
2024-04-04T00:36:42.075Z,0
2024-04-04T00:37:42.069Z,0
2024-04-04T00:38:42.074Z,0
2024-04-04T00:39:42.072Z,0
2024-04-04T00:40:42.074Z,0
2024-04-04T00:41:42.074Z,0
2024-04-04T00:42:42.081Z,0
2024-04-04T00:43:42.088Z,0
2024-04-04T00:44:42.075Z,0
2024-04-04T00:45:42.072Z,0
2024-04-04T00:46:42.074Z,0
2024-04-04T00:47:42.076Z,0
2024-04-04T00:48:42.077Z,0
2024-04-04T00:49:42.073Z,0
2024-04-04T00:50:42.095Z,0
2024-04-04T00:51:42.075Z,0
2024-04-04T00:52:42.079Z,0
2024-04-04T00:53:42.074Z,0
2024-04-04T00:54:42.079Z,0
2024-04-04T00:55:42.080Z,0
2024-04-04T00:56:42.080Z,0
2024-04-04T00:57:42.076Z,0
2024-04-04T00:58:42.082Z,0
2024-04-04T00:59:42.083Z,0
2024-04-04T01:00:42.082Z,0
2024-04-04T01:01:42.078Z,0
2024-04-04T01:02:42.076Z,0
2024-04-04T01:03:42.082Z,0
2024-04-04T01:04:42.079Z,0
2024-04-04T01:05:42.082Z,0
2024-04-04T01:06:42.093Z,0
2024-04-04T01:07:42.092Z,0
2024-04-04T01:08:42.090Z,0
2024-04-04T01:09:42.080Z,0
2024-04-04T01:10:42.082Z,0
2024-04-04T01:11:42.079Z,0
2024-04-04T01:12:42.080Z,0
2024-04-04T01:13:42.084Z,0
2024-04-04T01:14:42.079Z,0
2024-04-04T01:15:42.086Z,0
2024-04-04T01:16:42.092Z,0
2024-04-04T01:17:42.087Z,0
2024-04-04T01:18:42.082Z,0
2024-04-04T01:19:42.081Z,0
2024-04-04T01:20:42.084Z,0
2024-04-04T01:21:42.092Z,0
2024-04-04T01:22:42.101Z,0
2024-04-04T01:23:42.091Z,0
2024-04-04T01:24:42.098Z,0
2024-04-04T01:25:42.090Z,0
2024-04-04T01:26:42.087Z,0
2024-04-04T01:27:42.092Z,0
2024-04-04T01:28:42.090Z,0
2024-04-04T01:29:42.105Z,0
2024-04-04T01:30:42.091Z,0
2024-04-04T01:31:42.090Z,0
2024-04-04T01:32:42.095Z,0
2024-04-04T01:33:42.097Z,0
2024-04-04T01:34:42.090Z,0
2024-04-04T01:35:42.098Z,0
2024-04-04T01:36:42.095Z,0
2024-04-04T01:37:42.096Z,0
2024-04-04T01:38:42.113Z,0
2024-04-04T01:39:42.093Z,0
2024-04-04T01:40:42.098Z,0
2024-04-04T01:41:42.095Z,0
2024-04-04T01:42:42.101Z,0
2024-04-04T01:43:42.098Z,0
2024-04-04T01:44:42.098Z,0
2024-04-04T01:45:42.102Z,0
2024-04-04T01:46:42.105Z,0
2024-04-04T01:47:42.100Z,0
2024-04-04T01:48:42.102Z,0
2024-04-04T01:49:42.099Z,0
2024-04-04T01:50:42.109Z,0
2024-04-04T01:51:42.103Z,0
2024-04-04T01:52:42.101Z,0
2024-04-04T01:53:42.108Z,0
2024-04-04T01:54:42.119Z,0
2024-04-04T01:55:42.108Z,0
2024-04-04T01:56:42.103Z,0
2024-04-04T01:57:42.131Z,0
2024-04-04T01:58:42.106Z,0
2024-04-04T01:59:42.106Z,0
2024-04-04T02:00:43.180Z,0
2024-04-04T02:01:42.117Z,0
2024-04-04T02:02:42.104Z,0
2024-04-04T02:03:42.105Z,0
2024-04-04T02:04:42.111Z,0
2024-04-04T02:05:42.116Z,0
2024-04-04T02:06:42.120Z,0
2024-04-04T02:07:42.118Z,0
2024-04-04T02:08:42.113Z,0
2024-04-04T02:09:42.115Z,0
2024-04-04T02:10:42.151Z,0
2024-04-04T02:11:42.122Z,0
2024-04-04T02:12:42.120Z,0
2024-04-04T02:13:42.131Z,0
2024-04-04T02:14:42.118Z,0
2024-04-04T02:15:42.113Z,0
2024-04-04T02:16:42.119Z,0
2024-04-04T02:17:42.121Z,0
2024-04-04T02:18:42.118Z,0
2024-04-04T02:19:42.121Z,0
2024-04-04T02:20:42.123Z,0
2024-04-04T02:21:42.123Z,0
2024-04-04T02:22:42.121Z,0
2024-04-04T02:23:42.120Z,0
2024-04-04T02:24:42.125Z,0
2024-04-04T02:25:42.124Z,0
2024-04-04T02:26:42.248Z,0
2024-04-04T02:27:42.129Z,0
2024-04-04T02:28:42.131Z,0
2024-04-04T02:29:42.147Z,0
2024-04-04T02:30:42.130Z,0
2024-04-04T02:31:42.131Z,0
2024-04-04T02:32:42.127Z,0
2024-04-04T02:33:42.149Z,0
2024-04-04T02:34:42.135Z,0
2024-04-04T02:35:42.128Z,0
2024-04-04T02:36:42.128Z,0
2024-04-04T02:37:42.128Z,0
2024-04-04T02:38:42.137Z,0
2024-04-04T02:39:42.133Z,0
2024-04-04T02:40:42.130Z,0
2024-04-04T02:41:42.132Z,0
2024-04-04T02:42:42.159Z,0
2024-04-04T02:43:42.134Z,0
2024-04-04T02:44:42.128Z,0
2024-04-04T02:45:42.133Z,0
2024-04-04T02:46:42.130Z,0
2024-04-04T02:47:42.132Z,0
2024-04-04T02:48:42.133Z,0
2024-04-04T02:49:42.137Z,0
2024-04-04T02:50:42.132Z,0
2024-04-04T02:51:42.142Z,0
2024-04-04T02:52:42.134Z,0
2024-04-04T02:53:42.131Z,0
2024-04-04T02:54:42.135Z,0
2024-04-04T02:55:42.158Z,0
2024-04-04T02:56:42.135Z,0
2024-04-04T02:57:42.131Z,0
2024-04-04T02:58:42.151Z,0
2024-04-04T02:59:42.133Z,0
2024-04-04T03:00:42.137Z,0
2024-04-04T03:01:42.144Z,0
2024-04-04T03:02:42.140Z,0
2024-04-04T03:03:42.139Z,0
2024-04-04T03:04:42.137Z,0
2024-04-04T03:05:42.140Z,0
2024-04-04T03:06:42.143Z,0
2024-04-04T03:07:42.141Z,0
2024-04-04T03:08:42.140Z,0
2024-04-04T03:09:42.145Z,0
2024-04-04T03:10:42.143Z,0
2024-04-04T03:11:42.141Z,0
2024-04-04T03:12:42.151Z,0
2024-04-04T03:13:42.145Z,0
2024-04-04T03:14:42.153Z,0
2024-04-04T03:15:42.168Z,0
2024-04-04T03:16:42.143Z,0
2024-04-04T03:17:42.144Z,0
2024-04-04T03:18:42.141Z,0
2024-04-04T03:19:42.140Z,0
2024-04-04T03:20:42.146Z,0
2024-04-04T03:21:42.145Z,0
2024-04-04T03:22:42.141Z,0
2024-04-04T03:23:42.146Z,0
2024-04-04T03:24:42.150Z,0
2024-04-04T03:25:42.143Z,0
2024-04-04T03:26:42.141Z,0
2024-04-04T03:27:42.146Z,0
2024-04-04T03:28:42.146Z,0
2024-04-04T03:29:42.146Z,0
2024-04-04T03:30:42.161Z,0
2024-04-04T03:31:42.147Z,0
2024-04-04T03:32:42.143Z,0
2024-04-04T03:33:42.148Z,0
2024-04-04T03:34:42.147Z,0
2024-04-04T03:35:42.156Z,0
2024-04-04T03:36:42.148Z,0
2024-04-04T03:37:42.148Z,0
2024-04-04T03:38:42.155Z,0
2024-04-04T03:39:42.149Z,0
2024-04-04T03:40:42.146Z,0
2024-04-04T03:41:42.150Z,0
2024-04-04T03:42:42.147Z,0
2024-04-04T03:43:42.150Z,0
2024-04-04T03:44:42.151Z,0
2024-04-04T03:45:42.151Z,0
2024-04-04T03:46:42.184Z,0
2024-04-04T03:47:42.160Z,0
2024-04-04T03:48:42.151Z,0
2024-04-04T03:49:42.153Z,0
2024-04-04T03:50:42.158Z,0
2024-04-04T03:51:42.162Z,0
2024-04-04T03:52:42.156Z,0
2024-04-04T03:53:42.154Z,0
2024-04-04T03:54:42.157Z,0
2024-04-04T03:55:42.155Z,0
2024-04-04T03:56:46.664Z,0
2024-04-04T03:57:42.160Z,0
2024-04-04T03:58:42.164Z,0
2024-04-04T03:59:42.163Z,0
2024-04-04T04:00:42.190Z,0
2024-04-04T04:01:42.157Z,0
2024-04-04T04:02:42.918Z,0
2024-04-04T04:03:42.162Z,0
2024-04-04T04:04:42.165Z,0
2024-04-04T04:05:42.163Z,0
2024-04-04T04:06:42.161Z,0
2024-04-04T04:07:42.163Z,0
2024-04-04T04:08:42.164Z,0
2024-04-04T04:09:42.167Z,0
2024-04-04T04:10:42.173Z,0
2024-04-04T04:11:42.167Z,0
2024-04-04T04:12:42.165Z,0
2024-04-04T04:13:42.172Z,0
2024-04-04T04:14:42.165Z,0
2024-04-04T04:15:42.166Z,0
2024-04-04T04:16:42.167Z,0
2024-04-04T04:17:42.188Z,0
2024-04-04T04:18:42.191Z,0
2024-04-04T04:19:42.169Z,0
2024-04-04T04:20:42.168Z,0
2024-04-04T04:21:42.170Z,0
2024-04-04T04:22:42.178Z,0
2024-04-04T04:23:42.168Z,0
2024-04-04T04:24:42.174Z,0
2024-04-04T04:25:42.171Z,0
2024-04-04T04:26:42.175Z,1
2024-04-04T04:27:42.167Z,1
2024-04-04T04:28:42.174Z,1
2024-04-04T04:29:42.170Z,1
2024-04-04T04:30:42.180Z,1
2024-04-04T04:31:42.171Z,4
2024-04-04T04:32:42.174Z,4
2024-04-04T04:33:42.172Z,4
2024-04-04T04:34:42.186Z,4
2024-04-04T04:35:42.176Z,4
2024-04-04T04:36:42.175Z,8
2024-04-04T04:37:42.169Z,8
2024-04-04T04:38:42.176Z,8
2024-04-04T04:39:42.175Z,8
2024-04-04T04:40:42.191Z,8
2024-04-04T04:41:42.181Z,17
2024-04-04T04:42:42.179Z,17
2024-04-04T04:43:42.180Z,17
2024-04-04T04:44:42.181Z,17
2024-04-04T04:45:42.180Z,17
2024-04-04T04:46:42.184Z,25
2024-04-04T04:47:42.181Z,25
2024-04-04T04:48:42.180Z,25
2024-04-04T04:49:42.181Z,25
2024-04-04T04:50:42.199Z,25
2024-04-04T04:51:42.182Z,32
2024-04-04T04:52:42.184Z,32
2024-04-04T04:53:42.180Z,32
2024-04-04T04:54:42.182Z,32
2024-04-04T04:55:42.183Z,32
2024-04-04T04:56:42.198Z,41
2024-04-04T04:57:42.181Z,41
2024-04-04T04:58:42.186Z,41
2024-04-04T04:59:42.185Z,41
2024-04-04T05:00:42.182Z,41
2024-04-04T05:01:42.187Z,63
2024-04-04T05:02:42.185Z,63
2024-04-04T05:03:42.186Z,63
2024-04-04T05:04:42.186Z,63
2024-04-04T05:05:42.187Z,63
2024-04-04T05:06:42.203Z,90
2024-04-04T05:07:42.197Z,90
2024-04-04T05:08:42.195Z,90
2024-04-04T05:09:42.191Z,90
2024-04-04T05:10:42.191Z,90
2024-04-04T05:11:42.191Z,122
2024-04-04T05:12:42.196Z,122
2024-04-04T05:13:42.194Z,122
2024-04-04T05:14:42.191Z,122
2024-04-04T05:15:42.193Z,122
2024-04-04T05:16:42.194Z,151
2024-04-04T05:17:42.195Z,151
2024-04-04T05:18:42.196Z,151
2024-04-04T05:19:42.195Z,151
2024-04-04T05:20:42.196Z,151
2024-04-04T05:21:42.196Z,171
2024-04-04T05:22:42.206Z,171
2024-04-04T05:23:42.199Z,171
2024-04-04T05:24:42.200Z,171
2024-04-04T05:25:42.196Z,171
2024-04-04T05:26:42.195Z,202
2024-04-04T05:27:42.195Z,202
2024-04-04T05:28:42.197Z,202
2024-04-04T05:29:42.197Z,202
2024-04-04T05:30:42.201Z,202
2024-04-04T05:31:42.198Z,246
2024-04-04T05:32:42.199Z,246
2024-04-04T05:33:42.206Z,246
2024-04-04T05:34:42.199Z,246
2024-04-04T05:35:42.196Z,246
2024-04-04T05:36:42.199Z,338
2024-04-04T05:37:42.200Z,338
2024-04-04T05:38:42.219Z,338
2024-04-04T05:39:42.198Z,338
2024-04-04T05:40:42.201Z,338
2024-04-04T05:41:42.200Z,422
2024-04-04T05:42:42.204Z,422
2024-04-04T05:43:42.204Z,422
2024-04-04T05:44:42.201Z,422
2024-04-04T05:45:42.199Z,422
2024-04-04T05:46:42.204Z,518
2024-04-04T05:47:42.203Z,518
2024-04-04T05:48:42.203Z,518
2024-04-04T05:49:42.203Z,518
2024-04-04T05:50:42.203Z,518
2024-04-04T05:51:42.209Z,594
2024-04-04T05:52:42.210Z,594
2024-04-04T05:53:42.209Z,594
2024-04-04T05:54:42.364Z,594
2024-04-04T05:55:42.242Z,594
2024-04-04T05:56:42.208Z,661
2024-04-04T05:57:42.217Z,661
2024-04-04T05:58:42.209Z,661
2024-04-04T05:59:42.210Z,661
2024-04-04T06:00:42.225Z,661
2024-04-04T06:01:42.207Z,632
2024-04-04T06:02:42.209Z,632
2024-04-04T06:03:42.209Z,632
2024-04-04T06:04:46.293Z,632
2024-04-04T06:05:42.210Z,632
2024-04-04T06:06:42.210Z,652
2024-04-04T06:07:42.212Z,652
2024-04-04T06:08:42.210Z,652
2024-04-04T06:09:42.209Z,652
2024-04-04T06:10:42.232Z,652
2024-04-04T06:11:42.211Z,585
2024-04-04T06:12:42.212Z,585
2024-04-04T06:13:42.215Z,585
2024-04-04T06:14:42.210Z,585
2024-04-04T06:15:42.223Z,585
2024-04-04T06:16:42.211Z,580
2024-04-04T06:17:42.213Z,580
2024-04-04T06:18:42.214Z,580
2024-04-04T06:19:42.215Z,580
2024-04-04T06:20:42.211Z,580
2024-04-04T06:21:42.215Z,815
2024-04-04T06:22:42.209Z,815
2024-04-04T06:23:42.210Z,815
2024-04-04T06:24:42.213Z,815
2024-04-04T06:25:42.208Z,815
2024-04-04T06:26:42.219Z,2038
2024-04-04T06:27:42.219Z,2038
2024-04-04T06:28:42.217Z,2038
2024-04-04T06:29:42.211Z,2038
2024-04-04T06:30:42.212Z,2038
2024-04-04T06:31:42.214Z,1493
2024-04-04T06:32:42.212Z,1493
2024-04-04T06:33:42.213Z,1493
2024-04-04T06:34:42.216Z,1493
2024-04-04T06:35:42.216Z,1493
2024-04-04T06:36:42.213Z,1650
2024-04-04T06:37:42.207Z,1650
2024-04-04T06:38:42.209Z,1650
2024-04-04T06:39:42.217Z,1650
2024-04-04T06:40:42.211Z,1650
2024-04-04T06:41:42.202Z,1849
2024-04-04T06:42:42.237Z,1849
2024-04-04T06:43:42.218Z,1849
2024-04-04T06:44:42.215Z,1849
2024-04-04T06:45:42.218Z,1849
2024-04-04T06:46:42.224Z,1383
2024-04-04T06:47:42.219Z,1383
2024-04-04T06:48:42.221Z,1383
2024-04-04T06:49:42.218Z,1383
2024-04-04T06:50:42.219Z,1383
2024-04-04T06:51:42.221Z,6122
2024-04-04T06:52:42.219Z,6122
2024-04-04T06:53:42.221Z,6122
2024-04-04T06:54:42.218Z,6122
2024-04-04T06:55:42.220Z,6122
2024-04-04T06:56:42.223Z,6471
2024-04-04T06:57:42.245Z,6471
2024-04-04T06:58:42.245Z,6471
2024-04-04T06:59:42.225Z,6471
2024-04-04T07:00:42.224Z,6471
2024-04-04T07:01:42.234Z,6366
2024-04-04T07:02:42.224Z,6366
2024-04-04T07:03:42.239Z,6366
2024-04-04T07:04:42.225Z,6366
2024-04-04T07:05:42.232Z,6366
2024-04-04T07:06:42.228Z,6534
2024-04-04T07:07:42.227Z,6534
2024-04-04T07:08:42.227Z,6534
2024-04-04T07:09:42.230Z,6534
2024-04-04T07:10:43.056Z,6534
2024-04-04T07:11:42.227Z,6190
2024-04-04T07:12:42.234Z,6190
2024-04-04T07:13:42.227Z,6190
2024-04-04T07:14:42.252Z,6190
2024-04-04T07:15:42.231Z,6190
2024-04-04T07:16:42.246Z,6307
2024-04-04T07:17:42.233Z,6307
2024-04-04T07:18:42.241Z,6307
2024-04-04T07:19:42.235Z,6307
2024-04-04T07:20:42.238Z,6307
2024-04-04T07:21:42.244Z,6751
2024-04-04T07:22:42.233Z,6751
2024-04-04T07:23:43.591Z,6751
2024-04-04T07:24:42.235Z,6751
2024-04-04T07:25:42.247Z,6751
2024-04-04T07:26:42.250Z,6368
2024-04-04T07:27:42.290Z,6368
2024-04-04T07:28:42.240Z,6368
2024-04-04T07:29:42.244Z,6368
2024-04-04T07:30:42.266Z,6368
2024-04-04T07:31:42.242Z,6428
2024-04-04T07:32:42.243Z,6428
2024-04-04T07:33:42.251Z,6428
2024-04-04T07:34:42.243Z,6428
2024-04-04T07:35:42.243Z,6428
2024-04-04T07:36:42.247Z,6374
2024-04-04T07:37:42.246Z,6374
2024-04-04T07:38:42.255Z,6374
2024-04-04T07:39:42.251Z,6374
2024-04-04T07:40:42.254Z,6374
2024-04-04T07:41:42.248Z,6662
2024-04-04T07:42:42.244Z,6662
2024-04-04T07:43:42.259Z,6662
2024-04-04T07:44:42.244Z,6662
2024-04-04T07:45:42.252Z,6662
2024-04-04T07:46:42.273Z,6662
2024-04-04T07:47:42.246Z,6662
2024-04-04T07:48:42.252Z,6662
2024-04-04T07:49:42.249Z,6662
2024-04-04T07:50:42.253Z,6662
2024-04-04T07:51:42.246Z,6307
2024-04-04T07:52:42.248Z,6307
2024-04-04T07:53:42.254Z,6307
2024-04-04T07:54:42.251Z,6307
2024-04-04T07:55:42.254Z,6307
2024-04-04T07:56:42.256Z,6716
2024-04-04T07:57:42.257Z,6716
2024-04-04T07:58:42.255Z,6716
2024-04-04T07:59:42.252Z,6716
2024-04-04T08:00:42.274Z,6716
2024-04-04T08:01:42.264Z,6537
2024-04-04T08:02:42.269Z,6537
2024-04-04T08:03:42.261Z,6537
2024-04-04T08:04:42.257Z,6537
2024-04-04T08:05:42.256Z,6537
2024-04-04T08:06:42.272Z,6503
2024-04-04T08:07:42.255Z,6503
2024-04-04T08:08:42.250Z,6503
2024-04-04T08:09:42.253Z,6503
2024-04-04T08:10:42.254Z,6503
2024-04-04T08:11:42.252Z,6108
2024-04-04T08:12:42.253Z,6108
2024-04-04T08:13:42.257Z,6108
2024-04-04T08:14:42.257Z,6108
2024-04-04T08:15:42.256Z,6108
2024-04-04T08:16:42.256Z,6180
2024-04-04T08:17:42.255Z,6180
2024-04-04T08:18:42.274Z,6180
2024-04-04T08:19:42.253Z,6180
2024-04-04T08:20:42.255Z,6180
2024-04-04T08:21:42.258Z,4113
2024-04-04T08:22:42.257Z,4113
2024-04-04T08:23:42.259Z,4113
2024-04-04T08:24:42.258Z,4113
2024-04-04T08:25:42.262Z,4113
2024-04-04T08:26:42.263Z,5532
2024-04-04T08:27:42.259Z,5532
2024-04-04T08:28:42.261Z,5532
2024-04-04T08:29:42.261Z,5532
2024-04-04T08:30:42.265Z,5532
2024-04-04T08:31:42.262Z,6817
2024-04-04T08:32:42.261Z,6817
2024-04-04T08:33:42.275Z,6817
2024-04-04T08:34:42.279Z,6817
2024-04-04T08:35:42.271Z,6817
2024-04-04T08:36:42.263Z,4150
2024-04-04T08:37:42.269Z,4150
2024-04-04T08:38:42.266Z,4150
2024-04-04T08:39:42.266Z,4150
2024-04-04T08:40:42.264Z,4150
2024-04-04T08:41:42.272Z,6866
2024-04-04T08:42:42.274Z,6866
2024-04-04T08:43:42.270Z,6866
2024-04-04T08:44:42.267Z,6866
2024-04-04T08:45:42.274Z,6866
2024-04-04T08:46:42.266Z,6557
2024-04-04T08:47:42.273Z,6557
2024-04-04T08:48:42.274Z,6557
2024-04-04T08:49:42.266Z,6557
2024-04-04T08:50:48.123Z,6557
2024-04-04T08:51:42.267Z,4071
2024-04-04T08:52:42.266Z,4071
2024-04-04T08:53:42.269Z,4071
2024-04-04T08:54:42.270Z,4071
2024-04-04T08:55:42.271Z,4071
2024-04-04T08:56:42.270Z,4700
2024-04-04T08:57:42.273Z,4700
2024-04-04T08:58:42.287Z,4700
2024-04-04T08:59:42.272Z,4700
2024-04-04T09:00:42.275Z,4700
2024-04-04T09:01:42.290Z,3941
2024-04-04T09:02:42.271Z,3941
2024-04-04T09:03:42.270Z,3941
2024-04-04T09:04:42.276Z,3941
2024-04-04T09:05:42.272Z,3941
2024-04-04T09:06:42.294Z,2621
2024-04-04T09:07:42.281Z,2621
2024-04-04T09:08:42.270Z,2621
2024-04-04T09:09:42.276Z,2621
2024-04-04T09:10:42.274Z,2621
2024-04-04T09:11:42.273Z,3558
2024-04-04T09:12:42.273Z,3558
2024-04-04T09:13:43.991Z,3558
2024-04-04T09:14:42.276Z,3558
2024-04-04T09:15:42.275Z,3558
2024-04-04T09:16:42.270Z,7244
2024-04-04T09:17:42.274Z,7244
2024-04-04T09:18:42.277Z,7244
2024-04-04T09:19:43.215Z,7244
2024-04-04T09:20:42.277Z,7244
2024-04-04T09:21:42.271Z,6163
2024-04-04T09:22:42.296Z,6163
2024-04-04T09:23:42.279Z,6163
2024-04-04T09:24:48.959Z,6163
2024-04-04T09:25:42.288Z,6163
2024-04-04T09:26:42.294Z,6557
2024-04-04T09:27:42.279Z,6557
2024-04-04T09:28:42.281Z,6557
2024-04-04T09:29:42.322Z,6557
2024-04-04T09:30:42.281Z,6557
2024-04-04T09:31:42.280Z,6586
2024-04-04T09:32:42.280Z,6586
2024-04-04T09:33:42.281Z,6586
2024-04-04T09:34:42.284Z,6586
2024-04-04T09:35:42.291Z,6586
2024-04-04T09:36:42.286Z,6345
2024-04-04T09:37:42.288Z,6345
2024-04-04T09:38:42.308Z,6345
2024-04-04T09:39:42.287Z,6345
2024-04-04T09:40:42.298Z,6345
2024-04-04T09:41:42.287Z,6355
2024-04-04T09:42:42.287Z,6355
2024-04-04T09:43:42.286Z,6355
2024-04-04T09:44:42.291Z,6355
2024-04-04T09:45:42.291Z,6355
2024-04-04T09:46:42.292Z,6318
2024-04-04T09:47:42.293Z,6318
2024-04-04T09:48:42.293Z,6318
2024-04-04T09:49:42.291Z,6318
2024-04-04T09:50:42.290Z,6318
2024-04-04T09:51:42.289Z,6223
2024-04-04T09:52:42.292Z,6223
2024-04-04T09:53:42.293Z,6223
2024-04-04T09:54:42.319Z,6223
2024-04-04T09:55:42.291Z,6223
2024-04-04T09:56:42.294Z,6048
2024-04-04T09:57:42.290Z,6048
2024-04-04T09:58:42.291Z,6048
2024-04-04T09:59:42.294Z,6048
2024-04-04T10:00:42.313Z,6048
2024-04-04T10:01:42.318Z,5992
2024-04-04T10:02:42.295Z,5992
2024-04-04T10:03:42.980Z,5992
2024-04-04T10:04:42.297Z,5992
2024-04-04T10:05:42.294Z,5992
2024-04-04T10:06:42.295Z,6008
2024-04-04T10:07:42.295Z,6008
2024-04-04T10:08:42.298Z,6008
2024-04-04T10:09:42.298Z,6008
2024-04-04T10:10:42.339Z,6008
2024-04-04T10:11:42.299Z,4599
2024-04-04T10:12:42.300Z,4599
2024-04-04T10:13:42.299Z,4599
2024-04-04T10:14:42.304Z,4599
2024-04-04T10:15:42.313Z,4599
2024-04-04T10:16:42.303Z,6067
2024-04-04T10:17:42.306Z,6067
2024-04-04T10:18:42.307Z,6067
2024-04-04T10:19:42.310Z,6067
2024-04-04T10:20:42.309Z,6067
2024-04-04T10:21:42.312Z,5883
2024-04-04T10:22:42.305Z,5883
2024-04-04T10:23:42.307Z,5883
2024-04-04T10:24:42.316Z,5883
2024-04-04T10:25:42.313Z,5883
2024-04-04T10:26:42.335Z,6243
2024-04-04T10:27:42.309Z,6243
2024-04-04T10:28:42.311Z,6243
2024-04-04T10:29:46.435Z,6243
2024-04-04T10:30:42.316Z,6243
2024-04-04T10:31:42.318Z,5107
2024-04-04T10:32:42.316Z,5107
2024-04-04T10:33:42.312Z,5107
2024-04-04T10:34:42.315Z,5107
2024-04-04T10:35:42.323Z,5107
2024-04-04T10:36:42.315Z,5746
2024-04-04T10:37:42.314Z,5746
2024-04-04T10:38:42.311Z,5746
2024-04-04T10:39:42.313Z,5746
2024-04-04T10:40:42.314Z,5746
2024-04-04T10:41:42.315Z,5408
2024-04-04T10:42:42.327Z,5408
2024-04-04T10:43:42.314Z,5408
2024-04-04T10:44:42.321Z,5408
2024-04-04T10:45:42.311Z,5408
2024-04-04T10:46:42.318Z,4480
2024-04-04T10:47:42.328Z,4480
2024-04-04T10:48:42.319Z,4480
2024-04-04T10:49:42.312Z,4480
2024-04-04T10:50:42.313Z,4480
2024-04-04T10:51:42.309Z,4179
2024-04-04T10:52:42.322Z,4179
2024-04-04T10:53:42.310Z,4179
2024-04-04T10:54:42.325Z,4179
2024-04-04T10:55:42.314Z,4179
2024-04-04T10:56:42.316Z,4550
2024-04-04T10:57:42.316Z,4550
2024-04-04T10:58:42.330Z,4550
2024-04-04T10:59:42.318Z,4550
2024-04-04T11:00:42.321Z,4550
2024-04-04T11:01:42.317Z,5322
2024-04-04T11:02:42.316Z,5322
2024-04-04T11:03:42.320Z,5322
2024-04-04T11:04:42.326Z,5322
2024-04-04T11:05:42.316Z,5322
2024-04-04T11:06:42.321Z,6533
2024-04-04T11:07:42.317Z,6533
2024-04-04T11:08:42.321Z,6533
2024-04-04T11:09:42.325Z,6533
2024-04-04T11:10:42.320Z,6533
2024-04-04T11:11:42.323Z,5500
2024-04-04T11:12:42.323Z,5500
2024-04-04T11:13:42.319Z,5500
2024-04-04T11:14:42.331Z,5500
2024-04-04T11:15:42.317Z,5500
2024-04-04T11:16:42.317Z,3933
2024-04-04T11:17:42.321Z,3933
2024-04-04T11:18:42.314Z,3933
2024-04-04T11:19:42.323Z,3933
2024-04-04T11:20:42.322Z,3933
2024-04-04T11:21:42.321Z,3877
2024-04-04T11:22:42.326Z,3877
2024-04-04T11:23:42.323Z,3877
2024-04-04T11:24:42.323Z,3877
2024-04-04T11:25:42.329Z,3877
2024-04-04T11:26:42.330Z,3321
2024-04-04T11:27:42.331Z,3321
2024-04-04T11:28:46.235Z,3321
2024-04-04T11:29:42.323Z,3321
2024-04-04T11:30:42.394Z,3321
2024-04-04T11:31:42.326Z,5096
2024-04-04T11:32:42.323Z,5096
2024-04-04T11:33:42.323Z,5096
2024-04-04T11:34:42.325Z,5096
2024-04-04T11:35:42.329Z,5096
2024-04-04T11:36:42.326Z,4898
2024-04-04T11:37:42.327Z,4898
2024-04-04T11:38:42.327Z,4898
2024-04-04T11:39:42.326Z,4898
2024-04-04T11:40:42.331Z,4898
2024-04-04T11:41:42.324Z,5116
2024-04-04T11:42:42.329Z,5116
2024-04-04T11:43:42.339Z,5116
2024-04-04T11:44:42.324Z,5116
2024-04-04T11:45:42.336Z,5116
2024-04-04T11:46:42.349Z,4323
2024-04-04T11:47:42.332Z,4323
2024-04-04T11:48:42.326Z,4323
2024-04-04T11:49:42.333Z,4323
2024-04-04T11:50:42.328Z,4323
2024-04-04T11:51:42.332Z,6087
2024-04-04T11:52:42.328Z,6087
2024-04-04T11:53:42.332Z,6087
2024-04-04T11:54:42.330Z,6087
2024-04-04T11:55:42.330Z,6087
2024-04-04T11:56:42.329Z,4333
2024-04-04T11:57:42.341Z,4333
2024-04-04T11:58:42.331Z,4333
2024-04-04T11:59:42.329Z,4333
2024-04-04T12:00:42.327Z,5431
2024-04-04T12:01:42.332Z,5431
2024-04-04T12:02:42.344Z,5431
2024-04-04T12:03:42.326Z,5431
2024-04-04T12:04:42.332Z,5431
2024-04-04T12:05:42.347Z,4095
2024-04-04T12:06:42.331Z,4095
2024-04-04T12:07:42.328Z,4095
2024-04-04T12:08:42.333Z,4095
2024-04-04T12:09:42.332Z,4095
2024-04-04T12:10:42.341Z,3693
2024-04-04T12:11:42.598Z,3693
2024-04-04T12:12:42.338Z,3693
2024-04-04T12:13:42.334Z,3693
2024-04-04T12:14:42.333Z,3693
2024-04-04T12:15:42.333Z,3102
2024-04-04T12:16:42.333Z,3102
2024-04-04T12:17:42.333Z,3102
2024-04-04T12:18:42.352Z,3102
2024-04-04T12:19:42.339Z,3102
2024-04-04T12:20:42.335Z,3861
2024-04-04T12:21:42.341Z,3861
2024-04-04T12:22:42.337Z,3861
2024-04-04T12:23:44.874Z,3861
2024-04-04T12:24:42.338Z,3861
2024-04-04T12:25:42.343Z,4998
2024-04-04T12:26:42.344Z,4998
2024-04-04T12:27:42.340Z,4998
2024-04-04T12:28:42.343Z,4998
2024-04-04T12:29:42.346Z,4998
2024-04-04T12:30:42.346Z,3561
2024-04-04T12:31:42.349Z,3561
2024-04-04T12:32:42.345Z,3561
2024-04-04T12:33:42.347Z,3561
2024-04-04T12:34:42.364Z,3561
2024-04-04T12:35:42.346Z,4249
2024-04-04T12:36:42.346Z,4249
2024-04-04T12:37:43.259Z,4249
2024-04-04T12:38:42.348Z,4249
2024-04-04T12:39:42.353Z,4249
2024-04-04T12:40:42.347Z,4069
2024-04-04T12:41:42.348Z,4069
2024-04-04T12:42:42.345Z,4069
2024-04-04T12:43:42.350Z,4069
2024-04-04T12:44:42.350Z,4069
2024-04-04T12:45:42.349Z,3756
2024-04-04T12:46:42.348Z,3756
2024-04-04T12:47:42.380Z,3756
2024-04-04T12:48:42.345Z,3756
2024-04-04T12:49:42.349Z,3756
2024-04-04T12:50:42.368Z,2549
2024-04-04T12:51:42.350Z,2549
2024-04-04T12:52:42.344Z,2549
2024-04-04T12:53:42.351Z,2549
2024-04-04T12:54:42.349Z,2549
2024-04-04T12:55:42.361Z,4014
2024-04-04T12:56:42.374Z,4014
2024-04-04T12:57:42.352Z,4014
2024-04-04T12:58:42.367Z,4014
2024-04-04T12:59:42.353Z,4014
2024-04-04T13:00:42.387Z,3569
2024-04-04T13:01:42.357Z,3569
2024-04-04T13:02:42.366Z,3569
2024-04-04T13:03:42.360Z,3569
2024-04-04T13:04:42.357Z,3569
2024-04-04T13:05:42.362Z,2523
2024-04-04T13:06:42.380Z,2523
2024-04-04T13:07:42.368Z,2523
2024-04-04T13:08:42.362Z,2523
2024-04-04T13:09:42.375Z,2523
2024-04-04T13:10:42.369Z,2377
2024-04-04T13:11:42.363Z,2377
2024-04-04T13:12:44.070Z,2377
2024-04-04T13:13:42.361Z,2377
2024-04-04T13:14:42.365Z,2377
2024-04-04T13:15:42.371Z,2165
2024-04-04T13:16:42.366Z,2165
2024-04-04T13:17:42.368Z,2165
2024-04-04T13:18:42.367Z,2165
2024-04-04T13:19:42.379Z,2165
2024-04-04T13:20:42.373Z,2112
2024-04-04T13:21:42.371Z,2112
2024-04-04T13:22:42.387Z,2112
2024-04-04T13:23:42.375Z,2112
2024-04-04T13:24:42.373Z,2112
2024-04-04T13:25:42.380Z,2137
2024-04-04T13:26:42.378Z,2137
2024-04-04T13:27:42.377Z,2137
2024-04-04T13:28:42.378Z,2137
2024-04-04T13:29:42.385Z,2137
2024-04-04T13:30:42.381Z,2277
2024-04-04T13:31:42.379Z,2277
2024-04-04T13:32:42.379Z,2277
2024-04-04T13:33:42.382Z,2277
2024-04-04T13:34:42.398Z,2277
2024-04-04T13:35:42.383Z,1723
2024-04-04T13:36:42.384Z,1723
2024-04-04T13:37:42.382Z,1723
2024-04-04T13:38:49.227Z,1723
2024-04-04T13:39:42.391Z,1723
2024-04-04T13:40:42.382Z,1218
2024-04-04T13:41:42.387Z,1218
2024-04-04T13:42:42.382Z,1218
2024-04-04T13:43:42.386Z,1218
2024-04-04T13:44:42.388Z,1218
2024-04-04T13:45:42.387Z,1218
2024-04-04T13:46:42.390Z,1218
2024-04-04T13:47:42.389Z,1218
2024-04-04T13:48:42.389Z,1218
2024-04-04T13:49:42.389Z,1218
2024-04-04T13:50:42.390Z,1218
2024-04-04T13:51:42.388Z,1218